Time;durP1;ratioP1;P1;durP2;ratioP2;P2;SDS_P1;SDS_P2;PMS_P1;PMS_P2;Temp;Humidity;BMP_temperature;BMP_pressure;BME280_temperature;BME280_humidity;BME280_pressure;Samples;Min_cycle;Max_cycle;Signal;HPM_P1;HPM_P2
2022/06/04 00:00:15;;;;;;;;;;;;;;;13.63;100.00;96019.19;1031087;28;20004;-70
2022/06/04 00:00:45;;;;;;;;;;;;;;;13.62;100.00;96014.22;1023254;28;20497;-67
2022/06/04 00:01:16;;;;;;;;;;;;;;;13.61;100.00;96018.69;1027209;28;19910;-69
2022/06/04 00:01:46;;;;;;;;;;;;;;;13.59;100.00;96018.19;1037958;28;19956;-70
2022/06/04 00:02:16;;;;;;;;;;;;;;;13.55;100.00;96019.00;1031275;28;19944;-68
2022/06/04 00:02:47;;;;;;;;;;;;;;;13.50;100.00;96016.41;1034749;28;20326;-69
2022/06/04 00:03:17;;;;;;;;;;;;;;;13.49;100.00;96020.88;1030576;28;20410;-67
2022/06/04 00:03:47;;;;;;;;;;;;;;;13.53;100.00;96023.75;1027017;28;19910;-70
2022/06/04 00:04:18;;;;;;;;;;;;;;;13.57;100.00;96022.16;1024946;28;19914;-68
2022/06/04 00:04:51;;;;;;;;;;;;;;;13.59;100.00;96026.09;1030419;28;19910;-69
2022/06/04 00:05:24;;;;;;;;;;;;;;;13.62;100.00;96024.75;1031672;28;19917;-69
2022/06/04 00:05:55;;;;;;;;;;;;;;;13.63;100.00;96021.06;1035800;28;20009;-68
2022/06/04 00:06:25;;;;;;;;;;;;;;;13.67;100.00;96024.72;1031294;28;20543;-68
2022/06/04 00:06:56;;;;;;;;;;;;;;;13.64;100.00;96014.72;1029206;28;20263;-68
2022/06/04 00:07:26;;;;;;;;;;;;;;;13.66;100.00;96020.50;1029574;28;19976;-67
2022/06/04 00:07:57;;;;;;;;;;;;;;;13.67;100.00;96024.72;1030219;28;20391;-68
2022/06/04 00:08:29;;;;;;;;;;;;;;;13.67;100.00;96017.59;1030908;28;19961;-70
2022/06/04 00:08:59;;;;;;;;;;;;;;;13.68;100.00;96026.28;1025368;28;19922;-71
2022/06/04 00:09:30;;;;;;;;;;;;;;;13.71;100.00;96027.59;1025028;28;19918;-70
2022/06/04 00:15:44;;;;;;;;;;;;;;;13.61;100.00;96012.63;1026924;28;19911;-69
2022/06/04 00:16:15;;;;;;;;;;;;;;;13.62;100.00;96008.94;1030645;28;19914;-69
2022/06/04 00:16:46;;;;;;;;;;;;;;;13.60;100.00;96011.06;1033084;28;19914;-67
2022/06/04 00:17:16;;;;;;;;;;;;;;;13.59;100.00;96012.13;1028728;28;19950;-68
2022/06/04 00:17:46;;;;;;;;;;;;;;;13.58;100.00;96013.97;1026892;28;19919;-67
2022/06/04 00:18:17;;;;;;;;;;;;;;;13.58;100.00;96013.16;1020756;29;20022;-68
2022/06/04 00:18:48;;;;;;;;;;;;;;;13.55;100.00;96013.75;1026683;28;19992;-69
2022/06/04 00:19:18;;;;;;;;;;;;;;;13.55;100.00;96008.47;1030801;28;19910;-68
2022/06/04 00:19:48;;;;;;;;;;;;;;;13.55;100.00;96011.09;1034839;28;19933;-68
2022/06/04 00:20:19;;;;;;;;;;;;;;;13.54;100.00;96014.78;1030827;28;19906;-68
2022/06/04 00:20:49;;;;;;;;;;;;;;;13.55;100.00;96008.47;1031176;28;19906;-68
2022/06/04 00:21:20;;;;;;;;;;;;;;;13.54;100.00;96012.16;1034613;28;19909;-68
2022/06/04 00:21:51;;;;;;;;;;;;;;;13.55;100.00;96013.75;1033347;28;20363;-70
2022/06/04 00:22:21;;;;;;;;;;;;;;;13.53;100.00;96011.34;1035017;28;19948;-68
2022/06/04 00:22:58;;;;;;;;;;;;;;;13.56;100.00;96007.41;1039096;28;20012;-67
2022/06/04 00:23:28;;;;;;;;;;;;;;;13.53;100.00;96014.00;1034661;28;20507;-69
2022/06/04 00:23:59;;;;;;;;;;;;;;;13.52;100.00;96006.38;1038216;28;20029;-68
2022/06/04 00:24:29;;;;;;;;;;;;;;;13.53;100.00;96013.22;1034857;28;20473;-67
2022/06/04 00:24:59;;;;;;;;;;;;;;;13.51;100.00;96010.84;1031099;28;19917;-67
2022/06/04 00:25:30;;;;;;;;;;;;;;;13.49;100.00;96005.06;1029264;28;19936;-70
2022/06/04 00:26:00;;;;;;;;;;;;;;;13.49;100.00;96005.06;1026600;28;20388;-68
2022/06/04 00:26:31;;;;;;;;;;;;;;;13.48;100.00;96007.97;1025818;28;19970;-67
2022/06/04 00:27:02;;;;;;;;;;;;;;;13.47;100.00;96009.03;1026737;28;19914;-68
2022/06/04 00:27:32;;;;;;;;;;;;;;;13.47;100.00;96007.19;1027050;28;19914;-70
2022/06/04 00:28:03;;;;;;;;;;;;;;;13.44;100.00;95997.97;1030899;28;20004;-69
2022/06/04 00:28:34;;;;;;;;;;;;;;;13.44;100.00;96003.22;1028257;28;20400;-70
2022/06/04 00:29:07;;;;;;;;;;;;;;;13.43;100.00;95999.03;1023469;28;19997;-68
2022/06/04 00:29:37;;;;;;;;;;;;;;;13.43;100.00;96003.53;1023488;28;19906;-68
2022/06/04 00:30:08;;;;;;;;;;;;;;;13.41;100.00;95997.72;1027137;28;20262;-68
2022/06/04 00:30:38;;;;;;;;;;;;;;;13.39;100.00;96003.28;1028011;28;19906;-69
2022/06/04 00:31:08;;;;;;;;;;;;;;;13.37;100.00;96005.41;1028588;28;20432;-68
2022/06/04 00:31:39;;;;;;;;;;;;;;;13.36;100.00;96001.19;1029977;28;19980;-69
2022/06/04 00:32:09;;;;;;;;;;;;;;;13.36;100.00;96003.03;1030403;28;19910;-68
2022/06/04 00:32:39;;;;;;;;;;;;;;;13.35;100.00;96006.75;1026804;28;19933;-68
2022/06/04 00:33:10;;;;;;;;;;;;;;;13.32;100.00;95996.75;1026881;28;19926;-70
2022/06/04 00:33:40;;;;;;;;;;;;;;;13.34;100.00;96005.16;1026978;28;19921;-70
2022/06/04 00:34:10;;;;;;;;;;;;;;;13.31;100.00;95998.59;1030409;28;19910;-69
2022/06/04 00:34:41;;;;;;;;;;;;;;;13.31;100.00;95998.59;1034746;28;20383;-70
2022/06/04 00:35:11;;;;;;;;;;;;;;;13.31;100.00;96001.25;1034942;28;20331;-68
2022/06/04 00:35:41;;;;;;;;;;;;;;;13.30;100.00;96010.19;1034743;28;20495;-68
2022/06/04 00:36:12;;;;;;;;;;;;;;;13.29;100.00;96000.72;1035045;28;19910;-67
2022/06/04 00:36:42;;;;;;;;;;;;;;;13.31;100.00;96003.88;1038965;28;19917;-68
2022/06/04 00:37:12;;;;;;;;;;;;;;;13.32;100.00;96004.66;1034672;28;19964;-68
2022/06/04 00:37:43;;;;;;;;;;;;;;;13.33;100.00;96007.00;1039022;28;19913;-69
2022/06/04 00:38:14;;;;;;;;;;;;;;;13.34;100.00;96007.78;1035037;28;19917;-68
2022/06/04 00:38:46;;;;;;;;;;;;;;;13.32;100.00;96002.81;1026780;28;19910;-67
2022/06/04 00:39:16;;;;;;;;;;;;;;;13.32;100.00;96010.72;1026812;28;19930;-67
2022/06/04 00:39:47;;;;;;;;;;;;;;;13.32;100.00;96005.44;1023079;28;20059;-68
2022/06/04 00:40:40;;;;;;;;;;;;;;;13.32;100.00;96004.66;1027074;28;19958;-69
2022/06/04 00:41:18;;;;;;;;;;;;;;;13.32;100.00;96009.94;1021445;28;19919;-68
2022/06/04 00:41:54;;;;;;;;;;;;;;;13.30;100.00;96007.56;1030313;28;20008;-69
2022/06/04 00:42:25;;;;;;;;;;;;;;;13.29;100.00;95999.94;1034800;28;20004;-67
2022/06/04 00:42:56;;;;;;;;;;;;;;;13.28;100.00;96001.78;1034746;28;19910;-68
2022/06/04 00:43:26;;;;;;;;;;;;;;;13.24;100.00;96003.34;1031781;28;19906;-67
2022/06/04 00:44:13;;;;;;;;;;;;;;;13.24;100.00;96010.44;1034839;28;19913;-67
2022/06/04 00:45:02;;;;;;;;;;;;;;;13.25;100.00;96004.19;1034725;28;20494;-68
2022/06/04 00:45:32;;;;;;;;;;;;;;;13.23;100.00;95999.13;1042538;28;19917;-68
2022/06/04 00:46:02;;;;;;;;;;;;;;;13.24;100.00;95999.91;1043383;28;19948;-68
2022/06/04 00:46:35;;;;;;;;;;;;;;;13.22;100.00;96010.75;1038681;28;19916;-68
2022/06/04 00:47:20;;;;;;;;;;;;;;;13.22;100.00;95997.56;1030484;28;19910;-68
2022/06/04 00:47:50;;;;;;;;;;;;;;;13.23;100.00;96001.75;1024077;28;20474;-67
2022/06/04 00:48:22;;;;;;;;;;;;;;;13.23;100.00;96006.25;1025075;28;19991;-69
2022/06/04 00:48:53;;;;;;;;;;;;;;;13.24;100.00;96007.81;1027004;28;19910;-66
2022/06/04 00:49:23;;;;;;;;;;;;;;;13.22;100.00;96000.19;1030249;28;20396;-68
2022/06/04 00:49:54;;;;;;;;;;;;;;;13.22;100.00;96008.09;1030999;28;20370;-70
2022/06/04 00:50:24;;;;;;;;;;;;;;;13.21;100.00;96009.13;1034769;28;20450;-68
2022/06/04 00:50:54;;;;;;;;;;;;;;;13.17;100.00;96008.13;1029002;28;20275;-69
2022/06/04 00:51:25;;;;;;;;;;;;;;;13.19;100.00;96012.06;1030199;28;19914;-68
2022/06/04 00:51:56;;;;;;;;;;;;;;;13.18;100.00;96014.97;1029718;28;19949;-70
2022/06/04 00:52:26;;;;;;;;;;;;;;;13.18;100.00;96012.34;1030107;28;19953;-69
2022/06/04 00:52:57;;;;;;;;;;;;;;;13.16;100.00;96007.34;1026836;28;19914;-68
2022/06/04 00:53:27;;;;;;;;;;;;;;;13.19;100.00;96017.34;1028550;28;19909;-69
2022/06/04 00:53:58;;;;;;;;;;;;;;;13.17;100.00;96013.38;1026810;28;19910;-69
2022/06/04 00:54:28;;;;;;;;;;;;;;;13.15;100.00;96016.31;1030759;28;19950;-68
2022/06/04 00:54:58;;;;;;;;;;;;;;;13.15;100.00;96012.88;1026438;28;20154;-69
2022/06/04 00:55:32;;;;;;;;;;;;;;;13.16;100.00;96011.81;1022775;29;19918;-69
2022/06/04 00:56:05;;;;;;;;;;;;;;;13.15;100.00;96010.25;1024124;28;19929;-67
2022/06/04 00:56:47;;;;;;;;;;;;;;;13.15;100.00;96015.53;1019784;29;20114;-69
2022/06/04 00:57:36;;;;;;;;;;;;;;;13.15;100.00;96020.78;1029248;28;20050;-67
2022/06/04 00:58:22;;;;;;;;;;;;;;;13.15;100.00;96018.16;1039860;28;19906;-70
2022/06/04 00:58:52;;;;;;;;;;;;;;;13.12;100.00;96014.22;1043539;28;19908;-69
2022/06/04 00:59:44;;;;;;;;;;;;;;;13.12;100.00;96016.06;1038885;28;20597;-68
2022/06/04 01:00:28;;;;;;;;;;;;;;;13.15;100.00;96020.78;1039079;28;19939;-69
2022/06/04 01:01:08;;;;;;;;;;;;;;;13.14;100.00;96024.47;1035500;28;20008;-68
2022/06/04 01:01:43;;;;;;;;;;;;;;;13.10;100.00;96023.44;1038381;28;19916;-68
2022/06/04 01:02:22;;;;;;;;;;;;;;;13.12;100.00;96018.69;1034825;28;19992;-71
2022/06/04 01:02:57;;;;;;;;;;;;;;;13.13;100.00;96015.00;1026574;28;19951;-67
2022/06/04 01:03:37;;;;;;;;;;;;;;;13.11;100.00;96025.00;1023244;28;19911;-68
2022/06/04 01:04:47;;;;;;;;;;;;;;;13.12;100.00;96018.69;1026755;28;19947;-69
2022/06/04 01:05:17;;;;;;;;;;;;;;;13.19;100.00;96021.81;1029021;28;19906;-68
2022/06/04 01:06:14;;;;;;;;;;;;;;;13.18;100.00;96028.16;1034794;28;19916;-68
2022/06/04 01:06:47;;;;;;;;;;;;;;;13.12;100.00;96016.06;1035238;28;19952;-70
2022/06/04 01:07:29;;;;;;;;;;;;;;;13.09;100.00;96021.88;1036961;28;19949;-69
2022/06/04 01:08:12;;;;;;;;;;;;;;;13.05;100.00;96020.84;1038558;28;20386;-70
2022/06/04 01:08:55;;;;;;;;;;;;;;;13.05;100.00;96021.63;1035034;28;19909;-70
2022/06/04 01:09:31;;;;;;;;;;;;;;;13.05;100.00;96020.84;1034995;28;20379;-69
2022/06/04 01:10:01;;;;;;;;;;;;;;;12.99;100.00;96017.44;1030670;28;19910;-69
2022/06/04 01:10:46;;;;;;;;;;;;;;;13.01;100.00;96017.16;1035611;28;20551;-68
2022/06/04 01:11:25;;;;;;;;;;;;;;;12.98;100.00;96019.28;1038905;28;19906;-69
2022/06/04 01:12:09;;;;;;;;;;;;;;;12.93;100.00;96018.50;1038565;28;19952;-70
2022/06/04 01:12:45;;;;;;;;;;;;;;;12.89;100.00;96014.84;1035031;28;19948;-69
2022/06/04 01:13:15;;;;;;;;;;;;;;;12.84;100.00;96017.50;1030545;28;20294;-68
2022/06/04 01:13:51;;;;;;;;;;;;;;;12.81;100.00;96020.66;1033351;28;20517;-69
2022/06/04 01:14:25;;;;;;;;;;;;;;;12.79;100.00;96018.31;1034971;28;19916;-69
2022/06/04 01:15:03;;;;;;;;;;;;;;;12.79;100.00;96020.16;1031837;28;20377;-69
2022/06/04 01:15:37;;;;;;;;;;;;;;;12.80;100.00;96027.00;1030940;28;19973;-68
2022/06/04 01:16:30;;;;;;;;;;;;;;;12.77;100.00;96015.16;1036112;28;20327;-69
2022/06/04 01:17:15;;;;;;;;;;;;;;;12.90;100.00;96019.06;1027613;28;19914;-68
2022/06/04 01:17:53;;;;;;;;;;;;;;;12.93;100.00;96016.66;1026643;28;19917;-70
2022/06/04 01:18:35;;;;;;;;;;;;;;;12.92;100.00;96017.72;1022617;29;19918;-68
2022/06/04 01:19:24;;;;;;;;;;;;;;;12.89;100.00;96018.25;1019022;29;20376;-71
2022/06/04 01:19:54;;;;;;;;;;;;;;;12.88;100.00;96018.56;1022737;29;20591;-70
2022/06/04 01:20:44;;;;;;;;;;;;;;;12.89;100.00;96020.91;1030366;28;19913;-68
2022/06/04 01:21:17;;;;;;;;;;;;;;;12.91;100.00;96021.44;1026697;28;19906;-69
2022/06/04 01:21:48;;;;;;;;;;;;;;;12.92;100.00;96017.72;1026153;28;20486;-68
2022/06/04 01:22:37;;;;;;;;;;;;;;;12.89;100.00;96022.75;1026220;28;19917;-71
2022/06/04 01:23:49;;;;;;;;;;;;;;;12.85;100.00;96017.25;1026946;28;19938;-68
2022/06/04 01:24:19;;;;;;;;;;;;;;;12.84;100.00;96017.50;1029969;28;19997;-69
2022/06/04 01:24:52;;;;;;;;;;;;;;;12.83;100.00;96008.81;1026548;28;19906;-69
2022/06/04 01:25:30;;;;;;;;;;;;;;;12.81;100.00;96015.38;1018354;29;20364;-69
2022/06/04 01:26:00;;;;;;;;;;;;;;;12.79;100.00;96009.63;1017872;29;19918;-69
2022/06/04 01:26:33;;;;;;;;;;;;;;;12.78;100.00;96014.09;1018279;29;20083;-69
2022/06/04 01:27:10;;;;;;;;;;;;;;;12.74;100.00;96005.97;1021195;28;20001;-69
2022/06/04 01:27:45;;;;;;;;;;;;;;;12.78;100.00;96005.44;1019898;29;19910;-69
2022/06/04 01:28:16;;;;;;;;;;;;;;;12.78;100.00;96008.84;1020294;29;19950;-68
2022/06/04 01:28:50;;;;;;;;;;;;;;;12.80;100.00;96009.34;1022084;29;20316;-71
2022/06/04 01:29:22;;;;;;;;;;;;;;;12.80;100.00;96005.94;1019198;29;19919;-68
2022/06/04 01:29:57;;;;;;;;;;;;;;;12.79;100.00;96007.78;1024024;28;19906;-68
2022/06/04 01:30:36;;;;;;;;;;;;;;;12.78;100.00;96005.44;1038737;28;20414;-69
2022/06/04 01:31:06;;;;;;;;;;;;;;;12.77;100.00;96001.97;1030513;28;20470;-68
2022/06/04 01:31:41;;;;;;;;;;;;;;;12.79;100.00;96009.63;1030076;28;19910;-69
2022/06/04 01:32:19;;;;;;;;;;;;;;;12.76;100.00;96002.25;1026685;28;19922;-68
2022/06/04 01:32:51;;;;;;;;;;;;;;;12.73;100.00;96003.56;1031369;28;19921;-68
2022/06/04 01:33:25;;;;;;;;;;;;;;;12.73;100.00;96003.56;1034875;28;19905;-69
2022/06/04 01:33:57;;;;;;;;;;;;;;;12.71;100.00;96000.44;1031490;28;19994;-69
2022/06/04 01:34:29;;;;;;;;;;;;;;;12.69;100.00;96002.53;1032309;28;19910;-69
2022/06/04 01:35:18;;;;;;;;;;;;;;;12.67;100.00;96004.66;1035539;28;19943;-68
2022/06/04 01:35:54;;;;;;;;;;;;;;;12.66;100.00;96001.22;1036828;28;19910;-69
2022/06/04 01:36:28;;;;;;;;;;;;;;;12.67;100.00;96007.28;1034885;28;20406;-69
2022/06/04 01:36:59;;;;;;;;;;;;;;;12.66;100.00;96006.50;1034506;28;19920;-69
2022/06/04 01:37:29;;;;;;;;;;;;;;;12.66;100.00;96000.44;1030679;28;19910;-68
2022/06/04 01:38:10;;;;;;;;;;;;;;;12.64;100.00;95999.91;1027404;28;20365;-68
2022/06/04 01:38:41;;;;;;;;;;;;;;;12.64;100.00;96005.19;1024260;28;19954;-69
2022/06/04 01:39:13;;;;;;;;;;;;;;;12.62;100.00;96002.06;1025417;28;20487;-68
2022/06/04 01:41:28;;;;;;;;;;;;;;;12.58;100.00;95998.38;1040224;28;20007;-68
2022/06/04 01:41:59;;;;;;;;;;;;;;;12.55;100.00;96002.34;1035547;28;19913;-68
2022/06/04 01:42:31;;;;;;;;;;;;;;;12.53;100.00;96004.44;1033402;28;19910;-68
2022/06/04 01:43:03;;;;;;;;;;;;;;;12.53;100.00;96003.66;1026646;28;20530;-69
2022/06/04 01:43:33;;;;;;;;;;;;;;;12.52;100.00;96002.88;1022896;29;19910;-71
2022/06/04 01:44:22;;;;;;;;;;;;;;;12.54;100.00;95999.94;1025548;28;19906;-69
2022/06/04 01:44:52;;;;;;;;;;;;;;;12.58;100.00;96001.03;1035043;28;19905;-68
2022/06/04 01:45:23;;;;;;;;;;;;;;;12.58;100.00;96006.28;1038752;28;20283;-68
2022/06/04 01:45:53;;;;;;;;;;;;;;;12.63;100.00;96000.97;1033100;28;19913;-68
2022/06/04 01:46:33;;;;;;;;;;;;;;;12.68;100.00;96006.25;1030674;28;19910;-70
2022/06/04 01:47:06;;;;;;;;;;;;;;;12.71;100.00;96011.75;1026693;28;19915;-68
2022/06/04 01:47:37;;;;;;;;;;;;;;;12.69;100.00;96005.19;1027759;28;19906;-68
2022/06/04 01:48:07;;;;;;;;;;;;;;;12.66;100.00;96003.09;1032384;28;19906;-68
2022/06/04 01:48:38;;;;;;;;;;;;;;;12.63;100.00;96004.41;1030778;28;19956;-69
2022/06/04 01:49:13;;;;;;;;;;;;;;;12.65;100.00;96006.78;1024035;28;19966;-69
2022/06/04 01:49:47;;;;;;;;;;;;;;;12.63;100.00;96003.63;1027613;28;19911;-67
2022/06/04 01:50:18;;;;;;;;;;;;;;;12.62;100.00;96007.31;1029557;28;19907;-70
2022/06/04 01:50:53;;;;;;;;;;;;;;;12.59;100.00;96005.22;1025900;28;20011;-70
2022/06/04 01:51:24;;;;;;;;;;;;;;;12.58;100.00;96006.28;1027179;28;20388;-69
2022/06/04 01:52:02;;;;;;;;;;;;;;;12.61;100.00;96006.53;1027759;28;19910;-69
2022/06/04 01:52:36;;;;;;;;;;;;;;;12.63;100.00;96003.63;1030449;28;19914;-69
2022/06/04 01:53:06;;;;;;;;;;;;;;;12.60;100.00;96004.94;1033876;28;19909;-66
2022/06/04 01:53:37;;;;;;;;;;;;;;;12.61;100.00;96008.34;1031164;28;19910;-70
2022/06/04 01:54:18;;;;;;;;;;;;;;;12.61;100.00;96010.97;1031312;28;19917;-68
2022/06/04 01:54:55;;;;;;;;;;;;;;;12.60;100.00;96012.84;1025234;28;19907;-69
2022/06/04 01:55:27;;;;;;;;;;;;;;;12.58;100.00;96007.06;1031353;28;20379;-70
2022/06/04 01:55:58;;;;;;;;;;;;;;;12.58;100.00;96003.66;1030440;28;19910;-70
2022/06/04 01:56:30;;;;;;;;;;;;;;;12.57;100.00;96009.94;1028465;28;20310;-68
2022/06/04 01:57:07;;;;;;;;;;;;;;;12.56;100.00;96001.28;1030354;28;19910;-70
2022/06/04 01:57:37;;;;;;;;;;;;;;;12.55;100.00;96010.22;1024945;28;20400;-68
2022/06/04 01:58:15;;;;;;;;;;;;;;;12.57;100.00;96009.94;1031828;28;19921;-67
2022/06/04 01:58:53;;;;;;;;;;;;;;;12.55;100.00;96012.06;1026429;28;19913;-67
2022/06/04 01:59:31;;;;;;;;;;;;;;;12.55;100.00;96012.88;1030264;28;20433;-69
2022/06/04 02:00:04;;;;;;;;;;;;;;;12.54;100.00;96016.56;1027679;28;20285;-69
2022/06/04 02:00:38;;;;;;;;;;;;;;;12.55;100.00;96012.88;1030711;28;19910;-68
2022/06/04 02:01:09;;;;;;;;;;;;;;;12.55;100.00;96009.44;1034195;28;20023;-67
2022/06/04 02:01:39;;;;;;;;;;;;;;;12.58;100.00;96014.19;1032113;28;19914;-68
2022/06/04 02:02:12;;;;;;;;;;;;;;;12.58;100.00;96009.69;1031703;28;19984;-69
2022/06/04 02:02:44;;;;;;;;;;;;;;;12.59;100.00;96010.47;1032613;28;20009;-68
2022/06/04 02:03:17;;;;;;;;;;;;;;;12.63;100.00;96008.88;1036426;28;20012;-68
2022/06/04 02:03:51;;;;;;;;;;;;;;;12.61;100.00;96009.16;1036621;28;20627;-69
2022/06/04 02:04:32;;;;;;;;;;;;;;;12.63;100.00;96008.88;1039998;28;19999;-69
2022/06/04 02:05:02;;;;;;;;;;;;;;;12.69;100.00;96010.44;1034205;28;19906;-69
2022/06/04 02:05:35;;;;;;;;;;;;;;;12.66;100.00;96003.09;1031885;28;19913;-69
2022/06/04 02:06:07;;;;;;;;;;;;;;;12.67;100.00;96009.91;1028188;28;19910;-69
2022/06/04 02:06:41;;;;;;;;;;;;;;;12.66;100.00;96003.88;1024392;28;19907;-68
2022/06/04 02:07:31;;;;;;;;;;;;;;;12.69;100.00;96007.81;1032913;28;20346;-67
2022/06/04 02:08:01;;;;;;;;;;;;;;;12.67;100.00;96005.44;1035128;28;19932;-69
2022/06/04 02:08:38;;;;;;;;;;;;;;;12.69;100.00;96007.81;1035054;28;20375;-68
2022/06/04 02:09:13;;;;;;;;;;;;;;;12.68;100.00;96000.97;1031592;28;19910;-68
2022/06/04 02:09:44;;;;;;;;;;;;;;;12.68;100.00;96006.25;1033529;28;20368;-67
2022/06/04 02:10:18;;;;;;;;;;;;;;;12.67;100.00;96004.66;1034204;28;19909;-70
2022/06/04 02:10:50;;;;;;;;;;;;;;;12.67;100.00;96002.03;1031548;28;19960;-68
2022/06/04 02:11:21;;;;;;;;;;;;;;;12.64;100.00;96007.81;1031611;28;19906;-69
2022/06/04 02:11:52;;;;;;;;;;;;;;;12.66;100.00;96003.09;1024292;28;19907;-68
2022/06/04 02:12:22;;;;;;;;;;;;;;;12.69;100.00;96003.34;1024393;28;19970;-69
2022/06/04 02:12:55;;;;;;;;;;;;;;;12.73;100.00;96004.38;1028286;28;19913;-67
2022/06/04 02:13:25;;;;;;;;;;;;;;;12.77;100.00;96003.81;1032953;28;19916;-68
2022/06/04 02:13:58;;;;;;;;;;;;;;;12.79;100.00;95999.88;1034792;28;20004;-68
2022/06/04 02:14:28;;;;;;;;;;;;;;;12.79;100.00;95991.97;1027899;28;20220;-68
2022/06/04 02:14:58;;;;;;;;;;;;;;;12.82;100.00;96001.19;1027825;28;19988;-70
2022/06/04 02:15:33;;;;;;;;;;;;;;;12.82;100.00;95998.56;1024572;28;20341;-69
2022/06/04 02:16:08;;;;;;;;;;;;;;;12.82;100.00;95998.56;1024529;28;19914;-67
2022/06/04 02:16:42;;;;;;;;;;;;;;;12.83;100.00;95987.75;1025213;28;19919;-70
2022/06/04 02:17:14;;;;;;;;;;;;;;;12.83;100.00;95990.38;1029645;28;19914;-68
2022/06/04 02:17:45;;;;;;;;;;;;;;;12.82;100.00;95991.44;1033384;28;20288;-71
2022/06/04 02:18:15;;;;;;;;;;;;;;;12.81;100.00;95989.06;1030992;28;19914;-69
2022/06/04 02:18:46;;;;;;;;;;;;;;;12.79;100.00;95988.56;1026733;28;20009;-68
2022/06/04 02:19:16;;;;;;;;;;;;;;;12.78;100.00;95990.41;1028229;28;19910;-69
2022/06/04 02:19:46;;;;;;;;;;;;;;;12.77;100.00;95990.66;1036307;28;19925;-69
2022/06/04 02:20:17;;;;;;;;;;;;;;;12.76;100.00;95989.88;1040017;28;19928;-68
2022/06/04 02:20:50;;;;;;;;;;;;;;;12.73;100.00;95998.31;1036274;28;19917;-69
2022/06/04 02:21:20;;;;;;;;;;;;;;;12.73;100.00;95999.09;1040095;28;19921;-70
2022/06/04 02:21:51;;;;;;;;;;;;;;;12.75;100.00;95996.22;1039543;28;20298;-69
2022/06/04 02:22:21;;;;;;;;;;;;;;;12.74;100.00;96000.69;1036600;28;19914;-68
2022/06/04 02:22:52;;;;;;;;;;;;;;;12.72;100.00;96002.78;1035978;28;19920;-68
2022/06/04 02:23:23;;;;;;;;;;;;;;;12.74;100.00;95999.88;1036089;28;19916;-67
2022/06/04 02:23:53;;;;;;;;;;;;;;;12.72;100.00;95996.75;1035838;28;19917;-68
2022/06/04 02:24:24;;;;;;;;;;;;;;;12.70;100.00;95994.38;1024061;28;20553;-68
2022/06/04 02:24:54;;;;;;;;;;;;;;;12.68;100.00;95993.88;1027871;28;19918;-69
2022/06/04 02:25:24;;;;;;;;;;;;;;;12.67;100.00;95999.38;1023908;28;19915;-70
2022/06/04 02:25:55;;;;;;;;;;;;;;;12.66;100.00;96000.44;1023898;28;19918;-70
2022/06/04 02:26:25;;;;;;;;;;;;;;;12.67;100.00;96000.16;1032115;28;20013;-68
2022/06/04 02:26:55;;;;;;;;;;;;;;;12.63;100.00;95998.34;1036046;28;19922;-68
2022/06/04 02:27:26;;;;;;;;;;;;;;;12.62;100.00;95999.41;1036120;28;19914;-68
2022/06/04 02:27:56;;;;;;;;;;;;;;;12.64;100.00;95999.91;1036061;28;19914;-69
2022/06/04 02:28:30;;;;;;;;;;;;;;;12.64;100.00;95999.91;1036064;28;19917;-68
2022/06/04 02:29:00;;;;;;;;;;;;;;;12.65;100.00;95998.88;1036271;28;19992;-68
2022/06/04 02:29:30;;;;;;;;;;;;;;;12.61;100.00;95995.19;1036111;28;19913;-69
2022/06/04 02:30:01;;;;;;;;;;;;;;;12.60;100.00;95998.88;1036108;28;19964;-69
2022/06/04 02:30:36;;;;;;;;;;;;;;;12.59;100.00;95999.94;1031937;28;19914;-67
2022/06/04 02:31:14;;;;;;;;;;;;;;;12.58;100.00;96001.81;1036649;28;19969;-69
2022/06/04 02:31:53;;;;;;;;;;;;;;;12.60;100.00;95994.41;1035279;28;19965;-68
2022/06/04 02:32:29;;;;;;;;;;;;;;;12.59;100.00;96003.38;1035958;28;20433;-68
2022/06/04 02:33:00;;;;;;;;;;;;;;;12.61;100.00;95997.81;1035980;28;20290;-67
2022/06/04 02:33:48;;;;;;;;;;;;;;;12.62;100.00;95999.41;1038104;28;19905;-67
2022/06/04 02:34:31;;;;;;;;;;;;;;;12.64;100.00;96000.72;1039254;28;20231;-68
2022/06/04 02:35:07;;;;;;;;;;;;;;;12.61;100.00;96001.25;1040007;28;20259;-68
2022/06/04 02:35:42;;;;;;;;;;;;;;;12.59;100.00;95994.69;1037469;28;19901;-68
2022/06/04 02:36:12;;;;;;;;;;;;;;;12.61;100.00;95995.19;1031846;28;20197;-68
2022/06/04 02:36:45;;;;;;;;;;;;;;;12.61;100.00;95995.19;1032014;28;19975;-68
2022/06/04 02:37:20;;;;;;;;;;;;;;;12.63;100.00;95998.34;1028581;28;19910;-69
2022/06/04 02:37:51;;;;;;;;;;;;;;;12.61;100.00;95992.56;1030004;28;19910;-71
2022/06/04 02:38:30;;;;;;;;;;;;;;;12.61;100.00;96000.44;1036110;28;19905;-69
2022/06/04 02:39:18;;;;;;;;;;;;;;;12.60;100.00;95996.25;1037829;28;20528;-69
2022/06/04 02:39:55;;;;;;;;;;;;;;;12.61;100.00;95997.81;1035371;28;19916;-69
2022/06/04 02:40:25;;;;;;;;;;;;;;;12.61;100.00;95996.00;1035978;28;19928;-68
2022/06/04 02:41:15;;;;;;;;;;;;;;;12.59;100.00;95999.94;1031532;28;20040;-68
2022/06/04 02:41:47;;;;;;;;;;;;;;;12.58;100.00;95995.75;1034627;28;19914;-69
2022/06/04 02:42:23;;;;;;;;;;;;;;;12.62;100.00;95996.78;1034597;28;19945;-68
2022/06/04 02:42:56;;;;;;;;;;;;;;;12.62;100.00;96000.19;1031392;28;19907;-68
2022/06/04 02:43:29;;;;;;;;;;;;;;;12.59;100.00;95998.09;1031770;28;20287;-68
2022/06/04 02:44:17;;;;;;;;;;;;;;;12.58;100.00;96003.66;1031571;28;20017;-69
2022/06/04 02:44:54;;;;;;;;;;;;;;;12.56;100.00;95998.63;1031252;28;19922;-68
2022/06/04 02:45:27;;;;;;;;;;;;;;;12.53;100.00;95996.53;1035666;28;20086;-69
2022/06/04 02:46:13;;;;;;;;;;;;;;;12.52;100.00;96002.88;1031775;28;20013;-68
2022/06/04 02:46:45;;;;;;;;;;;;;;;12.56;100.00;95997.84;1035500;28;19959;-69
2022/06/04 02:47:19;;;;;;;;;;;;;;;12.59;100.00;95994.69;1031894;28;19918;-68
2022/06/04 02:47:54;;;;;;;;;;;;;;;12.57;100.00;95999.41;1030446;28;20372;-67
2022/06/04 02:48:25;;;;;;;;;;;;;;;12.54;100.00;95999.94;1033211;28;19917;-68
2022/06/04 02:49:09;;;;;;;;;;;;;;;12.52;100.00;95997.59;1029020;28;19922;-68
2022/06/04 02:50:02;;;;;;;;;;;;;;;12.55;100.00;95999.69;1030450;28;19918;-68
2022/06/04 02:50:34;;;;;;;;;;;;;;;12.51;100.00;95998.66;1023980;28;19966;-68
2022/06/04 02:51:10;;;;;;;;;;;;;;;12.49;100.00;95996.28;1027797;28;19914;-68
2022/06/04 02:51:42;;;;;;;;;;;;;;;12.49;100.00;96000.78;1031191;28;19914;-70
2022/06/04 02:52:13;;;;;;;;;;;;;;;12.48;100.00;95994.72;1028905;28;19986;-69
2022/06/04 02:52:43;;;;;;;;;;;;;;;12.47;100.00;95990.53;1024804;28;19911;-68
2022/06/04 02:53:14;;;;;;;;;;;;;;;12.49;100.00;95998.91;1024248;28;20019;-67
2022/06/04 02:53:45;;;;;;;;;;;;;;;12.51;100.00;95996.03;1027807;28;19925;-70
2022/06/04 02:54:35;;;;;;;;;;;;;;;12.51;100.00;95990.78;1023658;29;19914;-69
2022/06/04 02:55:07;;;;;;;;;;;;;;;12.61;100.00;95992.56;1023914;29;20386;-70
2022/06/04 02:55:39;;;;;;;;;;;;;;;12.66;100.00;95992.56;1026743;28;20463;-69
2022/06/04 02:56:10;;;;;;;;;;;;;;;12.71;100.00;95989.91;1027656;28;19980;-68
2022/06/04 02:56:41;;;;;;;;;;;;;;;12.67;100.00;95994.91;1025054;28;19914;-68
2022/06/04 02:57:12;;;;;;;;;;;;;;;12.62;100.00;95992.31;1027918;28;19953;-68
2022/06/04 02:57:47;;;;;;;;;;;;;;;12.81;100.00;95991.69;1028170;28;20407;-68
2022/06/04 02:58:18;;;;;;;;;;;;;;;12.83;100.00;95993.00;1022554;28;19994;-70
2022/06/04 02:58:49;;;;;;;;;;;;;;;12.82;100.00;95996.69;1026324;28;19960;-67
2022/06/04 02:59:19;;;;;;;;;;;;;;;12.84;100.00;95994.56;1022050;29;20384;-71
2022/06/04 02:59:49;;;;;;;;;;;;;;;12.91;100.00;95989.81;1023305;28;19990;-68
2022/06/04 03:00:21;;;;;;;;;;;;;;;12.88;100.00;95995.63;1026596;28;20004;-67
2022/06/04 03:00:52;;;;;;;;;;;;;;;12.85;100.00;95993.53;1027393;28;19926;-68
2022/06/04 03:01:22;;;;;;;;;;;;;;;12.87;100.00;95994.03;1026505;28;20428;-69
2022/06/04 03:01:53;;;;;;;;;;;;;;;12.87;100.00;95987.97;1029731;28;19922;-67
2022/06/04 03:02:24;;;;;;;;;;;;;;;12.87;100.00;95994.03;1026976;28;19922;-70